Time;durP1;ratioP1;P1;durP2;ratioP2;P2;SDS_P1;SDS_P2;PMS_P1;PMS_P2;Temp;Humidity;BMP_temperature;BMP_pressure;BME280_temperature;BME280_humidity;BME280_pressure;Samples;Min_cycle;Max_cycle;Signal;HPM_P1;HPM_P2
2020/12/25 00:02:10;;;;;;;0.60;0.60;;;;;;;18.52;51.38;101238.16;5093893;28;20324;-65
2020/12/25 00:04:36;;;;;;;0.60;0.60;;;;;;;18.56;51.30;101242.25;5093942;28;20175;-65
2020/12/25 00:07:03;;;;;;;0.80;0.80;;;;;;;18.60;51.15;101240.94;5094815;28;20194;-65
2020/12/25 00:09:29;;;;;;;0.60;0.60;;;;;;;18.62;51.24;101234.38;5094814;28;20214;-65
2020/12/25 00:11:55;;;;;;;0.40;0.40;;;;;;;18.66;51.44;101241.19;5094815;28;20604;-65
2020/12/25 00:14:21;;;;;;;0.57;0.57;;;;;;;18.70;51.31;101239.91;5093962;28;20221;-65
2020/12/25 00:16:47;;;;;;;0.60;0.60;;;;;;;18.75;51.26;101244.00;5093707;28;20329;-65
2020/12/25 00:19:14;;;;;;;0.70;0.60;;;;;;;18.76;51.10;101241.13;5094691;28;20207;-65
2020/12/25 00:21:40;;;;;;;1.03;0.60;;;;;;;18.80;51.20;101247.94;5094700;28;20378;-65
2020/12/25 00:24:06;;;;;;;0.73;0.60;;;;;;;18.82;51.19;101245.06;5094715;28;20190;-67
2020/12/25 00:26:32;;;;;;;0.93;0.60;;;;;;;18.84;50.96;101248.47;5094355;28;20218;-61
2020/12/25 00:29:00;;;;;;;0.90;0.80;;;;;;;18.83;50.78;101244.06;5093380;28;20199;-62
2020/12/25 00:31:29;;;;;;;0.73;0.73;;;;;;;18.84;51.05;101260.16;5093343;28;20186;-62
2020/12/25 00:34:03;;;;;;;0.60;0.60;;;;;;;18.84;50.89;101259.31;5093274;28;20257;-62
2020/12/25 00:36:33;;;;;;;0.70;0.60;;;;;;;18.84;51.07;101260.16;5094316;28;20175;-62
2020/12/25 00:39:00;;;;;;;0.50;0.50;;;;;;;18.84;50.94;101264.75;5076556;28;20207;-62
2020/12/25 00:41:27;;;;;;;0.70;0.70;;;;;;;18.84;51.26;101259.31;5076493;28;20626;-62
2020/12/25 00:43:53;;;;;;;0.70;0.70;;;;;;;18.82;50.80;101258.63;5076400;28;20187;-62
2020/12/25 00:46:19;;;;;;;1.13;0.60;;;;;;;18.81;50.95;101267.78;5076470;28;20178;-62
2020/12/25 00:48:45;;;;;;;0.40;0.40;;;;;;;18.79;50.89;101267.06;5094069;28;20207;-62
2020/12/25 00:51:12;;;;;;;0.67;0.50;;;;;;;18.77;50.75;101259.09;5094064;28;20198;-62
2020/12/25 00:53:38;;;;;;;0.50;0.50;;;;;;;18.78;50.81;101270.81;5075360;28;20229;-62
2020/12/25 00:56:04;;;;;;;0.50;0.50;;;;;;;18.75;50.74;101268.41;5092811;28;20206;-62
2020/12/25 00:58:30;;;;;;;0.60;0.60;;;;;;;18.73;50.68;101270.44;5093545;28;20216;-64
2020/12/25 01:00:57;;;;;;;0.60;0.60;;;;;;;18.70;51.02;101277.88;5092918;28;20183;-65
2020/12/25 01:03:23;;;;;;;0.53;0.50;;;;;;;18.68;51.17;101282.56;5092967;28;20275;-64
2020/12/25 01:05:49;;;;;;;0.60;0.60;;;;;;;18.67;50.91;101285.44;5092732;28;20529;-63
2020/12/25 01:08:15;;;;;;;0.70;0.67;;;;;;;18.65;50.63;101291.00;5092676;28;20298;-64
2020/12/25 01:10:42;;;;;;;0.90;0.60;;;;;;;18.65;50.82;101291.00;5093093;28;20198;-64
2020/12/25 01:13:08;;;;;;;0.63;0.53;;;;;;;18.62;50.73;101294.03;5092491;28;20207;-64
2020/12/25 01:15:34;;;;;;;0.60;0.50;;;;;;;18.59;50.60;101297.03;5092457;28;20179;-64
2020/12/25 01:18:00;;;;;;;0.57;0.40;;;;;;;18.59;50.53;101305.16;5091406;28;20206;-62
2020/12/25 01:20:26;;;;;;;0.60;0.60;;;;;;;18.51;50.94;101307.78;5091572;28;20186;-64
2020/12/25 01:22:52;;;;;;;0.37;0.37;;;;;;;18.47;50.71;101317.25;5092341;28;20183;-64
2020/12/25 01:25:18;;;;;;;0.50;0.50;;;;;;;18.47;51.14;101322.66;5091579;28;20183;-63
2020/12/25 01:27:44;;;;;;;0.67;0.47;;;;;;;18.48;50.89;101328.94;5092532;28;20289;-62
2020/12/25 01:30:10;;;;;;;0.50;0.50;;;;;;;18.51;50.97;101334.91;5092478;28;20624;-63
2020/12/25 01:32:36;;;;;;;0.50;0.50;;;;;;;18.54;51.17;101331.88;5092316;28;20179;-63
2020/12/25 01:35:06;;;;;;;1.10;0.50;;;;;;;18.56;51.30;101332.56;5092167;28;20580;-65
2020/12/25 01:37:32;;;;;;;0.57;0.57;;;;;;;18.56;51.26;101332.56;5092061;28;20234;-66
2020/12/25 01:39:58;;;;;;;0.60;0.53;;;;;;;18.56;51.33;101338.00;5092299;28;20213;-67
2020/12/25 01:42:24;;;;;;;0.40;0.40;;;;;;;18.57;51.23;101341.56;5092119;28;20637;-67
2020/12/25 01:44:50;;;;;;;0.50;0.50;;;;;;;18.54;51.10;101350.84;5092188;28;20175;-67
2020/12/25 01:47:16;;;;;;;0.67;0.63;;;;;;;18.55;51.40;101359.84;5092092;28;20305;-62
2020/12/25 01:49:43;;;;;;;0.57;0.57;;;;;;;18.51;50.90;101363.88;5091825;28;20183;-62
2020/12/25 01:52:10;;;;;;;0.77;0.60;;;;;;;18.48;51.04;101370.44;5074209;28;20195;-62
2020/12/25 01:54:36;;;;;;;0.50;0.50;;;;;;;18.49;51.05;101371.31;5090856;28;20692;-67
2020/12/25 01:57:03;;;;;;;0.63;0.60;;;;;;;18.47;51.32;101366.03;5090720;28;20201;-66
2020/12/25 01:59:29;;;;;;;0.73;0.63;;;;;;;18.44;51.07;101373.59;5074178;28;20229;-66
2020/12/25 02:01:55;;;;;;;0.57;0.57;;;;;;;18.41;51.31;101378.31;5074144;28;20274;-65
2020/12/25 02:04:21;;;;;;;0.60;0.60;;;;;;;18.40;51.02;101381.16;5091040;28;20179;-64
2020/12/25 02:06:47;;;;;;;0.83;0.50;;;;;;;18.41;51.07;101382.88;5092122;28;20187;-62
2020/12/25 02:09:13;;;;;;;1.33;0.70;;;;;;;18.39;50.93;101384.88;5091829;28;20203;-63
2020/12/25 02:11:39;;;;;;;0.60;0.60;;;;;;;18.38;51.05;101377.75;5091882;28;20331;-63
2020/12/25 02:14:05;;;;;;;0.83;0.50;;;;;;;18.38;50.69;101389.47;5091638;28;20658;-63
2020/12/25 02:16:31;;;;;;;0.60;0.60;;;;;;;18.35;51.06;101388.91;5091646;28;20187;-63
2020/12/25 02:18:57;;;;;;;0.80;0.57;;;;;;;18.35;50.96;101392.47;5090543;28;20259;-67
2020/12/25 02:21:23;;;;;;;0.70;0.50;;;;;;;18.33;50.57;101399.06;5090781;28;20178;-63
2020/12/25 02:23:50;;;;;;;0.50;0.50;;;;;;;18.30;51.20;101399.34;5090814;28;20204;-67
2020/12/25 02:26:16;;;;;;;0.80;0.60;;;;;;;18.28;51.02;101404.06;5090661;28;20626;-67
2020/12/25 02:28:42;;;;;;;0.83;0.50;;;;;;;18.24;50.82;101403.53;5091496;28;20207;-67
2020/12/25 02:31:08;;;;;;;0.63;0.53;;;;;;;18.23;50.77;101411.81;5091445;28;20226;-67
2020/12/25 02:33:34;;;;;;;0.60;0.60;;;;;;;18.17;51.03;101412.38;5091184;28;20202;-67
2020/12/25 02:36:00;;;;;;;0.40;0.40;;;;;;;18.16;51.44;101413.38;5086668;28;20591;-67
2020/12/25 02:38:27;;;;;;;0.63;0.60;;;;;;;18.21;51.32;101417.34;5094885;28;20238;-67
2020/12/25 02:40:53;;;;;;;0.53;0.50;;;;;;;18.29;51.07;101422.03;5095738;28;20179;-67
2020/12/25 02:43:19;;;;;;;0.50;0.50;;;;;;;18.36;51.41;101425.84;5095797;28;20599;-67
2020/12/25 02:45:45;;;;;;;0.40;0.40;;;;;;;18.45;51.14;101427.66;5095880;28;20567;-67
2020/12/25 02:48:11;;;;;;;0.50;0.50;;;;;;;18.55;51.11;101427.63;5095369;28;20202;-64
2020/12/25 02:50:37;;;;;;;0.53;0.40;;;;;;;18.64;51.22;101437.59;5095421;28;20202;-64
2020/12/25 02:53:04;;;;;;;0.60;0.50;;;;;;;18.70;51.02;101437.84;5094424;28;20207;-63
2020/12/25 02:55:30;;;;;;;0.40;0.40;;;;;;;18.81;51.24;101444.06;5095218;28;20198;-67
2020/12/25 02:57:56;;;;;;;0.50;0.50;;;;;;;18.87;51.18;101448.88;5095092;28;20214;-63
2020/12/25 03:00:22;;;;;;;0.73;0.57;;;;;;;18.95;50.92;101443.56;5094398;28;20263;-63
2020/12/25 03:02:48;;;;;;;0.90;0.40;;;;;;;18.99;50.94;101440.38;5077285;28;20187;-67
2020/12/25 03:05:14;;;;;;;0.70;0.50;;;;;;;19.04;50.72;101444.50;5095212;28;20266;-67
2020/12/25 03:07:40;;;;;;;0.40;0.40;;;;;;;19.06;50.64;101451.47;5094966;28;20217;-67
2020/12/25 03:10:06;;;;;;;0.50;0.50;;;;;;;19.07;50.65;101455.88;5094033;28;20183;-67
2020/12/25 03:12:32;;;;;;;0.57;0.47;;;;;;;19.09;50.80;101458.44;5093871;28;20183;-67
2020/12/25 03:14:58;;;;;;;0.50;0.50;;;;;;;19.09;50.76;101462.00;5094904;28;20642;-67
2020/12/25 03:17:24;;;;;;;0.57;0.50;;;;;;;19.10;50.51;101457.44;5094721;28;20262;-63
2020/12/25 03:19:50;;;;;;;0.43;0.33;;;;;;;19.07;50.68;101455.88;5093950;28;20236;-63
2020/12/25 03:22:16;;;;;;;0.60;0.57;;;;;;;19.06;50.55;101465.03;5095061;28;20262;-63
2020/12/25 03:24:42;;;;;;;0.50;0.50;;;;;;;19.07;50.44;101460.47;5094113;28;20191;-63
2020/12/25 03:27:08;;;;;;;0.33;0.33;;;;;;;19.05;50.54;101467.91;5094804;28;20457;-63
2020/12/25 03:29:34;;;;;;;0.43;0.37;;;;;;;19.00;50.38;101468.38;5076954;28;20179;-65
2020/12/25 03:32:01;;;;;;;0.40;0.40;;;;;;;19.00;50.62;101484.66;5077007;28;20814;-65
2020/12/25 03:34:28;;;;;;;0.57;0.57;;;;;;;18.96;50.54;101475.97;5094503;28;20221;-63
2020/12/25 03:36:55;;;;;;;0.57;0.50;;;;;;;18.94;50.37;101471.69;5094528;28;20623;-63
2020/12/25 03:39:21;;;;;;;0.60;0.40;;;;;;;18.89;50.77;101480.25;5094634;28;20587;-63
2020/12/25 03:41:47;;;;;;;0.50;0.50;;;;;;;18.86;50.65;101482.44;5094426;28;20182;-64
2020/12/25 03:44:13;;;;;;;0.67;0.60;;;;;;;18.83;50.46;101477.31;5094424;28;20183;-63
2020/12/25 03:46:39;;;;;;;0.80;0.60;;;;;;;18.77;50.69;101477.91;5094310;28;20197;-63
2020/12/25 03:49:06;;;;;;;1.17;0.50;;;;;;;18.74;50.44;101492.63;5092035;28;20781;-65
2020/12/25 03:51:32;;;;;;;0.60;0.40;;;;;;;18.71;50.68;101498.38;5093109;28;20250;-67
2020/12/25 03:53:58;;;;;;;0.40;0.40;;;;;;;18.67;50.34;101495.06;5093997;28;20689;-67
2020/12/25 03:56:24;;;;;;;0.50;0.50;;;;;;;18.62;50.35;101499.22;5093715;28;20195;-65
2020/12/25 03:58:50;;;;;;;0.80;0.60;;;;;;;18.56;50.62;101499.81;5093931;28;20282;-65
2020/12/25 04:01:16;;;;;;;0.53;0.50;;;;;;;18.53;50.35;101508.25;5094387;28;20230;-65
2020/12/25 04:03:42;;;;;;;0.43;0.30;;;;;;;18.53;50.66;101513.66;5094184;28;20179;-63
2020/12/25 04:06:08;;;;;;;0.40;0.40;;;;;;;18.52;50.70;101510.09;5093309;28;20319;-63
2020/12/25 04:08:35;;;;;;;0.60;0.40;;;;;;;18.49;50.89;101507.69;5093934;28;20199;-63
2020/12/25 04:11:01;;;;;;;0.73;0.50;;;;;;;18.51;50.47;101508.41;5093964;28;20245;-63
2020/12/25 04:13:27;;;;;;;0.40;0.40;;;;;;;18.47;50.41;101504.28;5092865;28;20256;-67
2020/12/25 04:15:53;;;;;;;0.43;0.40;;;;;;;18.44;50.70;101501.00;5093767;28;20210;-63
2020/12/25 04:18:19;;;;;;;0.40;0.40;;;;;;;18.43;50.76;101508.25;5093592;28;20263;-67
2020/12/25 04:20:45;;;;;;;0.50;0.50;;;;;;;18.39;50.69;101510.44;5093685;28;20194;-67
2020/12/25 04:23:11;;;;;;;0.50;0.50;;;;;;;18.40;50.79;101519.41;5093587;28;20689;-67
2020/12/25 04:25:37;;;;;;;0.60;0.60;;;;;;;18.36;50.58;101516.13;5093351;28;20183;-67
2020/12/25 04:28:04;;;;;;;0.80;0.53;;;;;;;18.38;50.70;101530.41;5093227;28;20711;-67
2020/12/25 04:30:30;;;;;;;0.50;0.50;;;;;;;18.38;51.08;101538.53;5093380;28;20627;-64
2020/12/25 04:32:56;;;;;;;0.50;0.50;;;;;;;18.39;51.24;101544.81;5093487;28;20203;-63
2020/12/25 04:35:22;;;;;;;0.50;0.40;;;;;;;18.39;50.83;101550.22;5093346;28;20194;-63
2020/12/25 04:37:48;;;;;;;0.50;0.50;;;;;;;18.39;51.32;101553.78;5093246;28;20207;-63
2020/12/25 04:40:14;;;;;;;0.43;0.40;;;;;;;18.40;50.95;101555.50;5093386;28;20534;-63
2020/12/25 04:42:40;;;;;;;0.40;0.40;;;;;;;18.39;51.16;101559.22;5075571;28;20183;-63
2020/12/25 04:45:07;;;;;;;0.40;0.40;;;;;;;18.41;51.16;101561.78;5075837;28;20190;-63
2020/12/25 04:47:37;;;;;;;0.33;0.30;;;;;;;18.41;50.77;101557.22;5093102;28;20654;-63
2020/12/25 04:50:03;;;;;;;0.50;0.50;;;;;;;18.41;50.91;101564.47;5092146;28;20190;-65
2020/12/25 04:52:30;;;;;;;0.50;0.50;;;;;;;18.42;50.78;101555.34;5093047;28;20812;-65
2020/12/25 04:54:56;;;;;;;0.40;0.40;;;;;;;18.17;51.21;101520.75;5075200;28;20242;-65
2020/12/25 04:57:22;;;;;;;0.40;0.40;;;;;;;18.39;50.77;101561.91;5092465;28;20219;-65
2020/12/25 04:59:48;;;;;;;0.60;0.50;;;;;;;18.38;50.86;101557.50;5074805;28;20519;-65
2020/12/25 05:02:14;;;;;;;0.80;0.47;;;;;;;18.37;51.12;101565.78;5092834;28;20190;-65
2020/12/25 05:04:40;;;;;;;0.47;0.40;;;;;;;18.36;50.73;101566.78;5091877;28;20659;-65
2020/12/25 05:07:06;;;;;;;0.50;0.50;;;;;;;18.31;51.21;101561.81;5091699;28;20183;-63
2020/12/25 05:09:33;;;;;;;0.60;0.60;;;;;;;18.33;50.55;101572.50;5074891;28;20269;-67
2020/12/25 05:11:59;;;;;;;0.70;0.67;;;;;;;18.32;51.01;101570.78;5091472;28;20805;-63
2020/12/25 05:14:26;;;;;;;0.67;0.50;;;;;;;18.29;50.84;101579.22;5074647;28;20314;-62
2020/12/25 05:16:57;;;;;;;0.50;0.50;;;;;;;18.27;50.69;101581.22;5075000;28;20183;-67
2020/12/25 05:19:28;;;;;;;0.47;0.47;;;;;;;18.26;50.93;101579.50;5092414;28;20622;-67
2020/12/25 05:21:58;;;;;;;0.60;0.60;;;;;;;18.23;50.84;101585.22;5092606;28;20244;-68
2020/12/25 05:24:25;;;;;;;0.60;0.60;;;;;;;18.19;51.05;101578.34;5074755;28;20606;-64
2020/12/25 05:26:55;;;;;;;0.57;0.40;;;;;;;18.17;50.63;101586.63;5074635;28;20213;-65
2020/12/25 05:29:22;;;;;;;0.47;0.47;;;;;;;18.19;51.12;101590.06;5074951;28;20207;-66
2020/12/25 05:31:48;;;;;;;0.60;0.40;;;;;;;18.23;51.25;101601.47;5091506;28;20533;-64
2020/12/25 05:34:18;;;;;;;0.47;0.47;;;;;;;18.30;50.89;101608.03;5092208;28;20211;-64
2020/12/25 05:36:51;;;;;;;0.73;0.70;;;;;;;18.39;51.19;101618.00;5091235;28;20187;-64
2020/12/25 05:39:31;;;;;;;0.60;0.50;;;;;;;18.50;51.09;101617.84;5090881;28;20236;-68
2020/12/25 05:41:58;;;;;;;0.50;0.50;;;;;;;18.46;51.18;101593.88;5092107;28;20227;-68
2020/12/25 05:44:25;;;;;;;0.40;0.40;;;;;;;18.67;50.93;101610.81;5091993;28;20179;-63
2020/12/25 05:46:51;;;;;;;0.50;0.50;;;;;;;18.75;51.00;101619.09;5074224;28;20550;-63
2020/12/25 05:49:17;;;;;;;0.80;0.50;;;;;;;18.81;51.05;101615.78;5091725;28;20266;-63
2020/12/25 05:51:48;;;;;;;0.70;0.50;;;;;;;18.87;50.67;101622.47;5074186;28;20194;-68
2020/12/25 05:54:18;;;;;;;0.50;0.50;;;;;;;18.92;50.79;101631.03;5074241;28;20207;-63
2020/12/25 05:56:44;;;;;;;0.70;0.43;;;;;;;18.96;51.03;101627.03;5074435;28;20202;-63
2020/12/25 05:59:10;;;;;;;0.60;0.40;;;;;;;18.98;50.73;101631.31;5074215;28;20649;-63
2020/12/25 06:01:36;;;;;;;0.50;0.50;;;;;;;19.00;50.63;101623.03;5057553;28;20256;-63
2020/12/25 06:04:02;;;;;;;0.50;0.50;;;;;;;19.01;50.37;101632.88;5091535;28;20194;-63
2020/12/25 06:06:28;;;;;;;0.70;0.60;;;;;;;19.02;50.59;101621.00;5091794;28;20195;-64
2020/12/25 06:08:59;;;;;;;0.30;0.30;;;;;;;19.01;50.20;101631.00;5057261;28;20222;-63
2020/12/25 06:11:29;;;;;;;0.50;0.50;;;;;;;19.01;50.57;101630.16;5090054;28;20627;-64
2020/12/25 06:13:56;;;;;;;0.83;0.57;;;;;;;19.01;50.53;101635.56;5074224;28;20214;-64
2020/12/25 06:16:22;;;;;;;0.80;0.60;;;;;;;18.99;50.14;101632.16;5091585;28;20187;-65
2020/12/25 06:19:29;;;;;;;0.67;0.50;;;;;;;18.97;50.50;101634.16;5073932;28;20209;-65
2020/12/25 06:22:04;;;;;;;0.50;0.50;;;;;;;18.93;50.25;101639.03;5052393;28;20198;-67
2020/12/25 06:24:33;;;;;;;0.60;0.60;;;;;;;18.90;50.23;101643.88;5088155;28;20195;-64
2020/12/25 06:27:00;;;;;;;0.67;0.60;;;;;;;18.88;50.17;101635.03;5090238;28;20209;-64
2020/12/25 06:29:27;;;;;;;0.50;0.50;;;;;;;18.83;50.10;101637.34;5090614;28;20285;-67
2020/12/25 06:31:57;;;;;;;0.60;0.40;;;;;;;18.79;50.50;101647.63;5090675;28;20191;-68
2020/12/25 06:34:38;;;;;;;0.53;0.47;;;;;;;18.74;50.06;101649.94;5090468;28;20225;-68
2020/12/25 06:37:07;;;;;;;0.40;0.40;;;;;;;18.69;50.10;101661.22;5090710;28;20191;-63
2020/12/25 06:39:33;;;;;;;0.60;0.47;;;;;;;18.64;50.55;101666.22;5090540;28;20372;-63
2020/12/25 06:42:00;;;;;;;0.60;0.60;;;;;;;18.60;50.17;101664.75;5090575;28;20178;-63
2020/12/25 06:44:29;;;;;;;0.77;0.53;;;;;;;18.51;50.75;101662.94;5090604;28;20243;-63
2020/12/25 06:47:01;;;;;;;0.50;0.50;;;;;;;18.46;50.49;101667.94;5074090;28;20532;-63
2020/12/25 06:49:37;;;;;;;0.40;0.40;;;;;;;18.44;50.73;101669.06;5073632;28;20242;-63
2020/12/25 06:52:03;;;;;;;0.40;0.40;;;;;;;18.42;50.54;101661.06;5090512;28;20194;-67
2020/12/25 06:54:41;;;;;;;0.67;0.60;;;;;;;18.19;50.62;101632.56;5090250;28;20256;-68
2020/12/25 06:57:09;;;;;;;0.50;0.50;;;;;;;18.34;50.76;101672.63;5090099;28;20255;-68
2020/12/25 06:59:35;;;;;;;0.67;0.50;;;;;;;18.35;50.29;101681.63;5090232;28;20195;-68
2020/12/25 07:02:02;;;;;;;0.77;0.53;;;;;;;18.32;50.69;101682.75;5090069;28;20534;-68
2020/12/25 07:04:28;;;;;;;0.53;0.50;;;;;;;18.32;50.59;101687.34;5073350;28;20195;-68
2020/12/25 07:06:56;;;;;;;0.83;0.50;;;;;;;18.31;50.33;101688.34;5091138;28;20521;-68
2020/12/25 07:09:22;;;;;;;0.50;0.50;;;;;;;18.30;50.38;101694.75;5090972;28;20682;-68
2020/12/25 07:11:51;;;;;;;0.80;0.40;;;;;;;18.27;50.36;101701.31;5090884;28;20251;-66
2020/12/25 07:14:17;;;;;;;0.47;0.47;;;;;;;18.25;50.50;101697.91;5090001;28;20210;-67
2020/12/25 07:16:43;;;;;;;0.30;0.30;;;;;;;18.24;50.76;101695.31;5091104;28;20659;-67
2020/12/25 07:19:09;;;;;;;0.70;0.50;;;;;;;18.22;50.66;101698.19;5090056;28;20203;-67
2020/12/25 07:21:36;;;;;;;0.50;0.50;;;;;;;18.23;50.50;101705.31;5091116;28;20274;-63
2020/12/25 07:24:02;;;;;;;0.60;0.50;;;;;;;18.25;50.85;101714.16;5093623;28;20183;-63
2020/12/25 07:26:28;;;;;;;0.80;0.50;;;;;;;18.26;50.75;101715.88;5076606;28;20285;-63
2020/12/25 07:28:55;;;;;;;0.60;0.50;;;;;;;18.27;50.97;101716.72;5094662;28;20234;-63
2020/12/25 07:31:21;;;;;;;0.60;0.50;;;;;;;18.28;50.66;101713.00;5076896;28;20697;-63
2020/12/25 07:33:54;;;;;;;0.40;0.40;;;;;;;18.29;50.87;101714.72;5093520;28;20214;-67
2020/12/25 07:36:21;;;;;;;0.60;0.50;;;;;;;18.31;50.90;101715.44;5094552;28;20187;-67
2020/12/25 07:38:47;;;;;;;1.00;0.57;;;;;;;18.35;51.15;101720.44;5094427;28;20685;-62
2020/12/25 07:41:13;;;;;;;0.80;0.47;;;;;;;18.41;50.85;101724.41;5093444;28;20225;-62
2020/12/25 07:43:39;;;;;;;0.67;0.50;;;;;;;18.51;50.86;101730.72;5093364;28;20241;-64
2020/12/25 07:46:11;;;;;;;0.63;0.43;;;;;;;18.59;50.82;101736.25;5094191;28;20191;-64
2020/12/25 07:48:40;;;;;;;0.80;0.43;;;;;;;18.68;50.69;101734.56;5076259;28;20257;-63
2020/12/25 07:51:06;;;;;;;0.83;0.50;;;;;;;18.75;50.78;101732.16;5094071;28;20191;-63
2020/12/25 07:53:32;;;;;;;0.40;0.40;;;;;;;18.82;50.55;101733.28;5093020;28;20545;-63
2020/12/25 07:55:59;;;;;;;0.50;0.40;;;;;;;18.87;50.65;101725.56;5092764;28;20196;-63
2020/12/25 07:58:25;;;;;;;0.50;0.40;;;;;;;18.89;50.71;101729.84;5096904;28;20699;-63
2020/12/25 08:00:51;;;;;;;0.60;0.50;;;;;;;18.92;50.50;101734.13;5086827;28;20606;-63
2020/12/25 08:03:17;;;;;;;0.40;0.40;;;;;;;18.95;50.40;101740.13;5088038;28;20579;-63
2020/12/25 08:05:43;;;;;;;0.50;0.43;;;;;;;18.95;50.33;101742.00;5102089;28;20221;-67
2020/12/25 08:08:09;;;;;;;0.40;0.33;;;;;;;18.94;50.31;101738.41;5091460;28;20214;-67
2020/12/25 08:10:36;;;;;;;0.57;0.50;;;;;;;18.94;50.21;101733.00;5075142;28;20203;-67
2020/12/25 08:13:04;;;;;;;0.50;0.40;;;;;;;18.95;50.02;101739.28;5093128;28;20209;-63
2020/12/25 08:15:33;;;;;;;0.40;0.40;;;;;;;18.94;50.17;101743.00;5073919;28;20248;-63
2020/12/25 08:17:59;;;;;;;0.47;0.40;;;;;;;18.92;50.11;101742.25;5092947;28;20213;-66
2020/12/25 08:20:25;;;;;;;0.40;0.40;;;;;;;18.89;50.30;101756.09;5092992;28;20199;-65
2020/12/25 08:22:58;;;;;;;0.40;0.40;;;;;;;18.85;50.27;101746.56;5092908;28;20253;-65
2020/12/25 08:25:27;;;;;;;1.07;0.60;;;;;;;18.83;50.38;101751.28;5092643;28;20529;-65
2020/12/25 08:27:53;;;;;;;0.40;0.40;;;;;;;18.79;50.18;101744.44;5090734;28;20198;-65
2020/12/25 08:30:21;;;;;;;0.50;0.40;;;;;;;18.75;50.18;101748.44;5094504;28;20267;-65
2020/12/25 08:32:47;;;;;;;0.90;0.40;;;;;;;18.72;50.36;101743.31;5093470;28;20182;-65
2020/12/25 08:35:17;;;;;;;0.80;0.60;;;;;;;18.67;50.21;101752.69;5093735;28;20183;-63
2020/12/25 08:37:53;;;;;;;0.43;0.40;;;;;;;18.63;50.08;101755.84;5093429;28;20218;-62
2020/12/25 08:40:19;;;;;;;0.90;0.40;;;;;;;18.57;50.12;101754.53;5076577;28;20213;-63
2020/12/25 08:42:45;;;;;;;0.40;0.40;;;;;;;18.52;50.35;101751.41;5093581;28;20316;-62
2020/12/25 08:45:17;;;;;;;0.60;0.60;;;;;;;18.46;50.67;101756.53;5094363;28;20186;-63
2020/12/25 08:47:43;;;;;;;4.07;1.00;;;;;;;18.37;46.21;101771.78;5093213;28;20215;-66
2020/12/25 08:50:09;;;;;;;4.40;1.50;;;;;;;17.77;41.92;101754.69;5093147;28;20206;-67
2020/12/25 08:52:35;;;;;;;3.00;1.40;;;;;;;17.42;41.24;101766.75;5092909;28;20611;-66
2020/12/25 08:55:01;;;;;;;3.83;1.13;;;;;;;17.21;43.05;101760.50;5055940;28;20673;-63
2020/12/25 08:57:30;;;;;;;3.53;1.23;;;;;;;17.21;43.63;101760.50;5089463;28;20228;-64
2020/12/25 09:00:00;;;;;;;2.53;1.20;;;;;;;17.28;44.91;101761.69;5060166;28;20187;-63
2020/12/25 09:02:26;;;;;;;3.17;1.30;;;;;;;17.31;45.32;101766.84;5092859;28;20286;-63
2020/12/25 09:04:52;;;;;;;3.77;1.37;;;;;;;17.41;45.48;101766.88;5092795;28;20179;-63
2020/12/25 09:07:18;;;;;;;3.37;1.00;;;;;;;17.50;46.36;101764.22;5093504;28;20187;-61
2020/12/25 09:09:44;;;;;;;1.50;0.80;;;;;;;17.64;46.46;101767.56;5092761;28;20182;-60
2020/12/25 09:12:11;;;;;;;1.80;1.10;;;;;;;17.77;46.24;101779.06;5093644;28;20734;-60
2020/12/25 09:14:37;;;;;;;1.97;1.00;;;;;;;17.90;46.38;101776.94;5093508;28;20263;-60
2020/12/25 09:17:03;;;;;;;2.50;1.00;;;;;;;18.02;46.59;101777.72;5093309;28;20202;-60
2020/12/25 09:19:29;;;;;;;0.83;0.80;;;;;;;18.17;46.58;101778.16;5093498;28;20604;-60
2020/12/25 09:21:55;;;;;;;1.63;1.00;;;;;;;18.30;46.73;101779.63;5093513;28;20182;-65
2020/12/25 09:24:21;;;;;;;1.60;1.07;;;;;;;18.41;47.05;101784.06;5093780;28;20281;-66
2020/12/25 09:26:47;;;;;;;2.03;0.83;;;;;;;18.53;46.99;101790.22;5093323;28;20202;-65
2020/12/25 09:29:13;;;;;;;1.60;1.07;;;;;;;18.66;46.90;101796.22;5093375;28;20227;-60
2020/12/25 09:31:39;;;;;;;1.80;0.77;;;;;;;18.77;47.07;101795.25;5094143;28;20214;-68
2020/12/25 09:34:06;;;;;;;2.00;0.90;;;;;;;18.85;47.31;101798.09;5093911;28;20198;-60
2020/12/25 09:36:32;;;;;;;2.40;0.87;;;;;;;18.97;46.74;101796.97;5092507;28;20190;-65
2020/12/25 09:38:58;;;;;;;2.40;0.90;;;;;;;19.06;47.17;101801.50;5093154;28;20207;-65
2020/12/25 09:41:24;;;;;;;0.70;0.60;;;;;;;19.16;47.30;101807.75;5093150;28;20642;-64
2020/12/25 09:43:50;;;;;;;2.20;0.90;;;;;;;19.27;46.94;101804.91;5086245;28;20191;-67
2020/12/25 09:46:17;;;;;;;2.17;0.77;;;;;;;19.37;47.62;101804.00;5052408;28;20797;-67
2020/12/25 09:48:43;;;;;;;1.50;0.87;;;;;;;19.46;47.94;101805.88;5069399;28;20262;-66
2020/12/25 09:51:09;;;;;;;3.87;0.80;;;;;;;19.56;47.96;101812.16;5069671;28;20311;-67
2020/12/25 09:53:35;;;;;;;1.53;0.77;;;;;;;19.67;47.93;101811.13;5086807;28;20255;-70
2020/12/25 09:56:01;;;;;;;1.43;0.77;;;;;;;19.73;47.76;101814.09;5088108;28;20282;-68
2020/12/25 09:58:27;;;;;;;1.43;0.70;;;;;;;19.81;47.70;101803.31;5088603;28;20219;-66
2020/12/25 10:00:53;;;;;;;3.30;0.80;;;;;;;19.91;48.04;101804.16;5090018;28;20293;-76
2020/12/25 10:03:19;;;;;;;2.47;0.80;;;;;;;20.02;48.36;101802.22;5088287;28;20419;-68
2020/12/25 10:05:45;;;;;;;2.83;0.80;;;;;;;20.15;48.59;101808.19;5071588;28;20218;-75
2020/12/25 10:08:11;;;;;;;2.88;0.98;;;;;;;20.23;48.31;101814.56;5071273;28;20424;-79
2020/12/25 10:10:38;;;;;;;1.30;0.80;;;;;;;20.33;48.56;101800.91;5055855;28;20651;-75
2020/12/25 10:13:05;;;;;;;2.67;0.80;;;;;;;20.42;48.63;101800.03;5072414;28;20620;-73
2020/12/25 10:15:31;;;;;;;2.07;0.70;;;;;;;20.51;48.64;101812.69;5055317;28;20719;-70
2020/12/25 10:17:57;;;;;;;2.80;0.80;;;;;;;20.60;48.80;101810.06;5071230;28;20215;-60
2020/12/25 10:20:23;;;;;;;1.85;0.70;;;;;;;20.67;48.71;101811.16;5088869;28;20412;-60
2020/12/25 10:22:49;;;;;;;2.00;0.80;;;;;;;20.72;48.53;101809.69;5090047;28;20202;-60
2020/12/25 10:25:15;;;;;;;2.40;0.83;;;;;;;20.79;48.29;101815.34;5090372;28;20197;-61
2020/12/25 10:27:42;;;;;;;2.93;0.90;;;;;;;20.87;48.14;101818.16;5072143;28;20215;-64
2020/12/25 10:30:08;;;;;;;3.30;0.87;;;;;;;20.94;48.23;101812.94;5089247;28;20201;-65
2020/12/25 10:32:34;;;;;;;2.07;0.80;;;;;;;21.00;48.46;101812.28;5089625;28;20622;-65
2020/12/25 10:35:00;;;;;;;1.27;0.63;;;;;;;21.05;48.19;101805.38;5083240;28;20241;-66
2020/12/25 10:37:26;;;;;;;2.40;0.80;;;;;;;21.10;48.45;101804.91;5088826;28;20218;-60
2020/12/25 10:39:52;;;;;;;1.63;0.70;;;;;;;21.18;48.48;101802.25;5088998;28;20205;-60
2020/12/25 10:42:18;;;;;;;1.43;0.80;;;;;;;21.24;48.38;101811.66;5088920;28;20195;-59
2020/12/25 10:44:44;;;;;;;0.67;0.50;;;;;;;21.30;48.25;101803.75;5087330;28;20606;-58
2020/12/25 10:47:12;;;;;;;1.83;0.70;;;;;;;21.37;48.08;101803.94;5088799;28;20190;-58
2020/12/25 10:49:38;;;;;;;0.93;0.67;;;;;;;21.41;48.11;101811.63;5088706;28;20190;-62
2020/12/25 10:52:04;;;;;;;1.03;0.77;;;;;;;21.46;47.85;101813.88;5089193;28;20248;-61
2020/12/25 10:54:30;;;;;;;1.60;0.80;;;;;;;21.54;48.11;101811.22;5088858;28;20246;-61
2020/12/25 10:56:56;;;;;;;2.23;0.90;;;;;;;21.60;47.92;101807.00;5089084;28;20775;-68
2020/12/25 10:59:22;;;;;;;1.87;0.60;;;;;;;21.66;48.14;101806.34;5092587;28;20236;-67
2020/12/25 11:01:48;;;;;;;1.97;0.60;;;;;;;21.72;48.27;101803.81;5092695;28;20252;-67
2020/12/25 11:04:14;;;;;;;2.27;0.60;;;;;;;21.79;48.17;101806.75;5093544;28;20659;-62
2020/12/25 11:06:41;;;;;;;1.90;0.80;;;;;;;21.84;48.07;101811.72;5092477;28;20192;-62
2020/12/25 11:09:08;;;;;;;1.60;0.60;;;;;;;21.90;47.87;101805.59;5074096;28;20214;-62
2020/12/25 11:11:35;;;;;;;3.10;0.90;;;;;;;21.94;48.02;101806.97;5093326;28;20190;-62
2020/12/25 11:14:02;;;;;;;1.77;0.70;;;;;;;21.98;47.98;101801.03;5092114;28;20211;-62
2020/12/25 11:16:29;;;;;;;1.73;0.67;;;;;;;22.01;47.82;101806.19;5093118;28;20282;-62
2020/12/25 11:18:57;;;;;;;1.73;0.60;;;;;;;22.05;47.94;101810.31;5092960;28;20310;-62
2020/12/25 11:21:23;;;;;;;1.63;0.70;;;;;;;22.11;48.41;101807.94;5093159;28;20205;-63
2020/12/25 11:23:52;;;;;;;1.30;0.70;;;;;;;22.15;47.92;101804.72;5093205;28;20572;-68